createdAt,value
2022-09-07T00:01:01.107Z,1.90
2022-09-07T00:03:27.967Z,1.80
2022-09-07T00:05:54.838Z,1.80
2022-09-07T00:08:24.802Z,1.58
2022-09-07T00:10:56.533Z,1.80
2022-09-07T00:13:24.561Z,2.50
2022-09-07T00:15:51.595Z,2.08
2022-09-07T00:18:18.485Z,1.90
2022-09-07T00:20:45.666Z,1.77
2022-09-07T00:23:12.794Z,1.95
2022-09-07T00:25:40.361Z,1.70
2022-09-07T00:28:08.376Z,1.57
2022-09-07T00:30:40.657Z,1.52
2022-09-07T00:33:09.199Z,1.33
2022-09-07T00:35:42.189Z,1.25
2022-09-07T00:38:09.092Z,1.52
2022-09-07T00:40:36.105Z,1.40
2022-09-07T00:43:03.299Z,1.42
2022-09-07T00:45:30.147Z,1.45
2022-09-07T00:48:16.906Z,1.33
2022-09-07T00:51:01.561Z,1.30
2022-09-07T00:53:33.241Z,1.48
2022-09-07T00:56:01.168Z,1.25
2022-09-07T00:58:28.228Z,1.40
2022-09-07T01:00:55.747Z,1.35
2022-09-07T01:03:38.123Z,1.03
2022-09-07T01:06:11.939Z,1.38
2022-09-07T01:08:38.896Z,1.30
2022-09-07T01:11:06.231Z,1.30
2022-09-07T01:13:32.988Z,1.50
2022-09-07T01:16:26.407Z,1.38
2022-09-07T01:19:24.441Z,1.25
2022-09-07T01:25:00.718Z,1.88
2022-09-07T01:27:40.534Z,1.60
2022-09-07T01:30:14.471Z,1.63
2022-09-07T01:33:15.777Z,1.50
2022-09-07T01:35:48.173Z,1.67
2022-09-07T01:38:21.912Z,1.33
2022-09-07T01:41:10.110Z,1.25
2022-09-07T01:46:31.064Z,0.98
2022-09-07T01:49:10.517Z,1.10
2022-09-07T01:51:43.247Z,1.00
2022-09-07T01:54:39.114Z,1.10
2022-09-07T01:57:10.980Z,1.20
2022-09-07T01:59:50.084Z,1.00
2022-09-07T02:02:21.214Z,1.20
2022-09-07T02:05:04.679Z,1.00
2022-09-07T02:07:46.843Z,1.50
2022-09-07T02:10:19.374Z,1.45
2022-09-07T02:13:09.544Z,1.20
2022-09-07T02:15:45.410Z,1.20
2022-09-07T02:18:14.247Z,1.40
2022-09-07T02:20:45.098Z,1.30
2022-09-07T02:23:18.132Z,1.50
2022-09-07T02:25:52.363Z,1.70
2022-09-07T02:28:25.847Z,2.78
2022-09-07T02:30:52.673Z,2.28
2022-09-07T02:33:19.500Z,1.90
2022-09-07T02:35:46.776Z,1.63
2022-09-07T02:38:13.612Z,1.30
2022-09-07T02:40:40.319Z,1.58
2022-09-07T02:43:09.311Z,1.50
2022-09-07T02:45:54.727Z,1.40
2022-09-07T02:48:32.144Z,1.80
2022-09-07T02:51:35.570Z,1.65
2022-09-07T02:54:05.202Z,1.55
2022-09-07T02:56:51.193Z,1.45
2022-09-07T02:59:35.634Z,1.30
2022-09-07T03:02:15.269Z,1.33
2022-09-07T03:04:42.524Z,1.20
2022-09-07T03:07:13.320Z,1.30
2022-09-07T03:09:45.966Z,1.40
2022-09-07T03:12:12.866Z,1.30
2022-09-07T03:14:41.618Z,1.85
2022-09-07T03:17:09.341Z,1.40
2022-09-07T03:19:36.577Z,1.10
2022-09-07T03:22:04.151Z,1.20
2022-09-07T03:24:31.176Z,1.30
2022-09-07T03:26:58.453Z,1.20
2022-09-07T03:29:25.187Z,1.30
2022-09-07T03:31:51.908Z,1.30
2022-09-07T03:34:18.693Z,1.30
2022-09-07T03:36:45.454Z,1.40
2022-09-07T03:39:13.205Z,1.20
2022-09-07T03:41:40.129Z,1.40
2022-09-07T03:44:07.715Z,1.35
2022-09-07T03:46:35.011Z,1.50
2022-09-07T03:49:02.118Z,1.40
2022-09-07T03:51:29.268Z,1.35
2022-09-07T03:53:57.424Z,1.30
2022-09-07T03:56:25.254Z,1.23
2022-09-07T03:58:53.783Z,1.30
2022-09-07T04:03:49.524Z,1.33
2022-09-07T04:08:44.172Z,1.25
2022-09-07T04:11:13.361Z,1.37
2022-09-07T04:13:40.812Z,1.50
2022-09-07T04:16:18.791Z,1.45
2022-09-07T04:18:46.237Z,1.40
2022-09-07T04:21:13.351Z,1.73
2022-09-07T04:23:41.232Z,1.70
2022-09-07T04:26:14.190Z,1.30
2022-09-07T04:28:40.998Z,1.30
2022-09-07T04:31:07.820Z,1.80
2022-09-07T04:33:34.622Z,1.40
2022-09-07T04:36:02.183Z,1.50
2022-09-07T04:38:29.865Z,1.60
2022-09-07T04:41:09.792Z,1.42
2022-09-07T04:43:37.809Z,1.70
2022-09-07T04:46:07.447Z,1.33
2022-09-07T04:48:34.365Z,1.73
2022-09-07T04:51:09.003Z,1.88
2022-09-07T04:53:37.783Z,1.67
2022-09-07T04:56:05.064Z,1.80
2022-09-07T04:58:32.164Z,2.00
2022-09-07T05:01:05.848Z,2.38
2022-09-07T05:03:35.507Z,2.17
2022-09-07T05:06:06.036Z,2.00
2022-09-07T05:08:41.597Z,1.95
2022-09-07T05:11:09.184Z,1.88
2022-09-07T05:13:36.078Z,2.30
2022-09-07T05:16:09.911Z,2.10
2022-09-07T05:18:36.943Z,2.45
2022-09-07T05:21:09.706Z,2.88
2022-09-07T05:23:36.719Z,2.90
2022-09-07T05:26:05.878Z,2.80
2022-09-07T05:28:34.401Z,2.50
2022-09-07T05:31:17.583Z,3.05
2022-09-07T05:36:37.461Z,2.80
2022-09-07T05:39:06.155Z,3.35
2022-09-07T05:41:33.293Z,3.42
2022-09-07T05:46:46.842Z,2.97
2022-09-07T05:49:13.550Z,2.83
2022-09-07T05:51:41.148Z,3.10
2022-09-07T05:54:07.916Z,2.70
2022-09-07T05:56:36.102Z,2.40
2022-09-07T05:59:04.118Z,2.30
2022-09-07T06:01:31.715Z,2.25
2022-09-07T06:03:58.841Z,2.80
2022-09-07T06:06:25.598Z,2.45
2022-09-07T06:08:53.762Z,2.53
2022-09-07T06:11:22.777Z,2.78
2022-09-07T06:13:50.052Z,2.80
2022-09-07T06:16:18.596Z,2.70
2022-09-07T06:18:47.676Z,2.92
2022-09-07T06:21:20.347Z,2.65
2022-09-07T06:23:48.375Z,2.80
2022-09-07T06:26:16.577Z,2.63
2022-09-07T06:28:48.836Z,2.80
2022-09-07T06:31:18.910Z,3.03
2022-09-07T06:33:45.977Z,2.72
2022-09-07T06:36:14.991Z,2.65
2022-09-07T06:38:42.839Z,2.80
2022-09-07T06:44:11.514Z,2.45
2022-09-07T06:49:25.843Z,2.92
2022-09-07T06:51:52.641Z,3.13
2022-09-07T06:57:09.011Z,3.78
2022-09-07T06:59:38.103Z,4.97
2022-09-07T07:04:37.777Z,4.93
2022-09-07T07:07:10.420Z,4.40
2022-09-07T07:09:37.497Z,5.00
2022-09-07T07:12:04.353Z,4.80
2022-09-07T07:14:34.364Z,5.22
2022-09-07T07:17:05.159Z,6.13
2022-09-07T07:19:31.889Z,5.68
2022-09-07T07:22:18.809Z,5.57
2022-09-07T07:24:45.272Z,6.32
2022-09-07T07:27:12.013Z,6.47
2022-09-07T07:29:38.718Z,7.20
2022-09-07T07:32:05.683Z,7.32
2022-09-07T07:34:33.053Z,7.80
2022-09-07T07:36:59.840Z,7.05
2022-09-07T07:42:13.112Z,7.82
2022-09-07T07:44:40.147Z,7.53
2022-09-07T07:47:06.973Z,7.50
2022-09-07T07:49:33.777Z,8.60
2022-09-07T07:54:48.717Z,8.15
2022-09-07T07:57:18.896Z,8.93
2022-09-07T07:59:45.532Z,8.15
2022-09-07T08:02:16.174Z,8.95
2022-09-07T08:04:43.146Z,8.27
2022-09-07T08:07:11.993Z,8.25
2022-09-07T08:09:40.718Z,9.82
2022-09-07T08:12:08.262Z,8.88
2022-09-07T08:14:40.496Z,8.93
2022-09-07T08:17:08.313Z,10.40
2022-09-07T08:19:34.985Z,11.00
2022-09-07T08:22:01.681Z,10.45
2022-09-07T08:24:28.362Z,10.45
2022-09-07T08:26:55.094Z,10.23
2022-09-07T08:29:24.964Z,9.65
2022-09-07T08:31:51.691Z,10.82
2022-09-07T08:34:18.472Z,11.32
2022-09-07T08:36:45.187Z,11.90
2022-09-07T08:39:11.861Z,12.60
2022-09-07T08:42:28.881Z,12.82
2022-09-07T08:45:00.576Z,12.68
2022-09-07T08:47:40.787Z,14.05
2022-09-07T08:50:18.273Z,13.95
2022-09-07T08:52:53.515Z,13.15
2022-09-07T08:55:31.466Z,13.52
2022-09-07T08:58:32.609Z,13.48
2022-09-07T09:06:54.346Z,11.70
2022-09-07T09:09:37.917Z,12.18
2022-09-07T09:12:23.529Z,11.10
2022-09-07T09:15:08.395Z,11.25
2022-09-07T09:17:51.933Z,12.13
2022-09-07T09:20:34.275Z,10.70
2022-09-07T09:23:12.710Z,11.25
2022-09-07T09:25:45.688Z,10.70
2022-09-07T09:28:12.955Z,11.27
2022-09-07T09:30:39.674Z,10.95
2022-09-07T09:33:27.844Z,11.73
2022-09-07T09:38:39.593Z,10.88
2022-09-07T09:41:10.105Z,10.25
2022-09-07T09:43:56.720Z,9.52
2022-09-07T09:46:27.247Z,9.30
2022-09-07T09:48:57.735Z,9.52
2022-09-07T09:54:37.197Z,9.20
2022-09-07T09:57:04.023Z,8.50
2022-09-07T10:05:40.260Z,7.05
2022-09-07T10:10:57.398Z,7.80
2022-09-07T10:13:32.009Z,7.60
2022-09-07T10:16:02.782Z,7.20
2022-09-07T10:18:33.953Z,7.55
2022-09-07T10:21:29.194Z,7.43
2022-09-07T10:24:04.619Z,5.93
2022-09-07T10:26:33.060Z,6.20
2022-09-07T10:32:01.518Z,5.60
2022-09-07T10:34:40.213Z,5.22
2022-09-07T10:37:10.088Z,5.47
2022-09-07T10:39:42.579Z,4.78
2022-09-07T10:42:09.263Z,4.43
2022-09-07T10:44:44.300Z,2.58
2022-09-07T10:47:38.939Z,2.75
2022-09-07T10:50:22.562Z,2.80
2022-09-07T10:52:55.183Z,2.75
2022-09-07T10:55:30.503Z,2.85
2022-09-07T10:58:12.301Z,2.65
2022-09-07T11:01:09.932Z,3.42
2022-09-07T11:04:01.625Z,2.92
2022-09-07T11:07:17.795Z,2.97
2022-09-07T11:09:58.711Z,2.03
2022-09-07T11:12:35.930Z,2.40
2022-09-07T11:15:23.708Z,2.22
2022-09-07T11:18:03.123Z,2.70
2022-09-07T11:20:35.471Z,2.20
2022-09-07T11:23:02.082Z,2.47
2022-09-07T11:25:39.205Z,1.60
2022-09-07T11:28:17.170Z,2.10
2022-09-07T11:30:50.014Z,2.45
2022-09-07T11:33:30.037Z,1.58
2022-09-07T11:36:11.956Z,1.95
2022-09-07T11:39:00.074Z,2.17
2022-09-07T11:41:30.842Z,1.65
2022-09-07T11:44:04.342Z,1.40
2022-09-07T11:46:41.577Z,1.80
2022-09-07T11:49:21.710Z,1.83
2022-09-07T11:52:04.976Z,2.10
2022-09-07T11:54:42.982Z,1.65
2022-09-07T11:57:15.834Z,2.08
2022-09-07T11:59:51.255Z,2.03
2022-09-07T12:02:58.085Z,1.77
2022-09-07T12:05:43.708Z,1.70
2022-09-07T12:08:46.512Z,1.60
2022-09-07T12:11:32.931Z,1.75
2022-09-07T12:14:28.150Z,1.50
2022-09-07T12:17:27.110Z,1.70
2022-09-07T12:20:12.815Z,2.03
2022-09-07T12:23:05.361Z,1.92
2022-09-07T12:25:34.533Z,1.70
2022-09-07T12:28:01.815Z,1.75
2022-09-07T12:30:30.156Z,1.90
2022-09-07T12:32:58.637Z,1.58
2022-09-07T12:35:28.442Z,1.75
2022-09-07T12:37:57.117Z,1.58
2022-09-07T12:40:33.326Z,1.42
2022-09-07T12:43:15.270Z,1.77
2022-09-07T12:45:45.042Z,1.13
2022-09-07T12:48:12.110Z,1.77
2022-09-07T12:50:56.400Z,1.30
2022-09-07T12:53:55.502Z,1.67
2022-09-07T12:56:45.152Z,1.58
2022-09-07T12:59:21.484Z,1.88
2022-09-07T13:01:57.326Z,1.63
2022-09-07T13:04:50.189Z,1.67
2022-09-07T13:07:28.618Z,1.95
2022-09-07T13:10:16.645Z,2.10
2022-09-07T13:16:06.480Z,1.60
2022-09-07T13:21:09.454Z,1.10
2022-09-07T13:23:40.045Z,1.42
2022-09-07T13:26:09.259Z,1.45
2022-09-07T13:28:52.644Z,1.40
2022-09-07T13:31:33.183Z,1.40
2022-09-07T13:34:00.541Z,1.30
2022-09-07T13:36:45.266Z,1.60
2022-09-07T13:39:15.866Z,1.05
2022-09-07T13:41:48.161Z,1.40
2022-09-07T13:44:29.313Z,1.25
2022-09-07T13:47:06.706Z,1.20
2022-09-07T13:50:05.863Z,1.08
2022-09-07T13:52:53.950Z,1.13
2022-09-07T13:55:32.872Z,1.45
2022-09-07T13:58:14.670Z,0.98
2022-09-07T14:00:56.393Z,1.10
2022-09-07T14:03:27.154Z,1.00
2022-09-07T14:06:13.095Z,1.08
2022-09-07T14:08:40.000Z,1.20
2022-09-07T14:11:18.506Z,1.00
2022-09-07T14:13:45.201Z,0.90
2022-09-07T14:16:12.194Z,1.02
2022-09-07T14:18:39.898Z,1.08
2022-09-07T14:21:09.564Z,1.08
2022-09-07T14:23:39.928Z,1.00
2022-09-07T14:26:23.110Z,0.98
2022-09-07T14:28:52.867Z,1.00
2022-09-07T14:31:22.571Z,1.25
2022-09-07T14:33:56.985Z,1.40
2022-09-07T14:36:47.699Z,0.85
2022-09-07T14:39:16.767Z,1.00
2022-09-07T14:41:44.208Z,0.98
2022-09-07T14:44:38.772Z,1.27
2022-09-07T14:47:29.672Z,2.13
2022-09-07T14:50:04.212Z,1.08
2022-09-07T14:52:43.093Z,1.30
2022-09-07T14:55:45.920Z,1.30
2022-09-07T14:58:15.618Z,0.82
2022-09-07T15:01:36.786Z,1.05
2022-09-07T15:04:00.831Z,0.90
2022-09-07T15:09:30.671Z,1.10
2022-09-07T15:12:38.204Z,1.67
2022-09-07T15:15:24.403Z,0.93
2022-09-07T15:17:52.883Z,1.00
2022-09-07T15:20:43.176Z,1.65
2022-09-07T15:23:14.716Z,1.10
2022-09-07T15:25:45.427Z,0.82
2022-09-07T15:34:10.105Z,1.35
2022-09-07T15:36:40.327Z,1.17
2022-09-07T15:39:07.754Z,1.60
2022-09-07T15:41:34.858Z,1.33
2022-09-07T15:44:01.838Z,1.05
2022-09-07T15:46:28.541Z,0.90
2022-09-07T15:48:56.191Z,1.10
2022-09-07T15:54:13.177Z,1.13
2022-09-07T15:56:40.882Z,1.20
2022-09-07T15:59:07.716Z,1.10
2022-09-07T16:04:24.156Z,1.43
2022-09-07T16:06:51.475Z,0.98
2022-09-07T16:09:21.741Z,1.30
2022-09-07T16:11:50.991Z,2.28
2022-09-07T16:14:18.683Z,1.88
2022-09-07T16:19:36.179Z,1.37
2022-09-07T16:22:03.469Z,1.17
2022-09-07T16:24:30.584Z,2.05
2022-09-07T16:26:57.776Z,1.30
2022-09-07T16:29:24.878Z,3.50
2022-09-07T16:34:39.817Z,1.30
2022-09-07T16:37:07.510Z,1.20
2022-09-07T16:39:34.975Z,1.15
2022-09-07T16:42:02.208Z,1.17
2022-09-07T16:44:29.407Z,1.20
2022-09-07T16:46:56.557Z,1.15
2022-09-07T16:49:23.796Z,1.70
2022-09-07T16:51:50.913Z,1.17
2022-09-07T16:54:18.097Z,1.25
2022-09-07T16:56:47.136Z,1.13
2022-09-07T16:59:20.280Z,1.40
2022-09-07T17:01:47.683Z,1.08
2022-09-07T17:04:14.874Z,1.67
2022-09-07T17:06:42.057Z,0.88
2022-09-07T17:09:09.175Z,1.17
2022-09-07T17:11:37.069Z,1.20
2022-09-07T17:14:06.395Z,1.00
2022-09-07T17:16:34.849Z,1.13
2022-09-07T17:21:51.827Z,1.13
2022-09-07T17:24:19.718Z,1.30
2022-09-07T17:26:47.080Z,1.15
2022-09-07T17:29:14.170Z,1.65
2022-09-07T17:34:29.815Z,1.10
2022-09-07T17:39:24.222Z,1.15
2022-09-07T17:41:52.560Z,1.20
2022-09-07T17:44:20.096Z,1.17
2022-09-07T17:46:47.258Z,1.48
2022-09-07T17:49:16.455Z,1.02
2022-09-07T17:51:43.989Z,1.45
2022-09-07T17:54:13.636Z,1.40
2022-09-07T17:56:41.795Z,1.35
2022-09-07T18:01:56.832Z,1.63
2022-09-07T18:04:24.529Z,1.10
2022-09-07T18:06:51.943Z,2.13
2022-09-07T18:09:19.919Z,1.03
2022-09-07T18:11:49.106Z,1.30
2022-09-07T18:14:16.837Z,1.17
2022-09-07T18:16:45.363Z,1.40
2022-09-07T18:19:13.040Z,1.42
2022-09-07T18:21:41.962Z,1.58
2022-09-07T18:24:13.567Z,1.25
2022-09-07T18:26:41.613Z,1.50
2022-09-07T18:29:25.952Z,1.58
2022-09-07T18:31:56.723Z,1.50
2022-09-07T18:34:23.777Z,1.83
2022-09-07T18:36:50.962Z,1.50
2022-09-07T18:39:18.195Z,1.60
2022-09-07T18:41:44.884Z,1.88
2022-09-07T18:46:59.542Z,1.58
2022-09-07T18:49:26.313Z,1.15
2022-09-07T18:54:41.515Z,1.60
2022-09-07T18:57:09.342Z,1.55
2022-09-07T18:59:36.099Z,1.33
2022-09-07T19:02:04.924Z,1.23
2022-09-07T19:07:27.325Z,1.70
2022-09-07T19:09:56.412Z,1.73
2022-09-07T19:12:24.184Z,1.55
2022-09-07T19:14:51.138Z,1.50
2022-09-07T19:17:17.951Z,1.63
2022-09-07T19:19:44.768Z,1.40
2022-09-07T19:22:11.485Z,1.63
2022-09-07T19:24:38.208Z,1.40
2022-09-07T19:27:05.192Z,1.13
2022-09-07T19:29:31.828Z,1.48
2022-09-07T19:32:04.395Z,1.63
2022-09-07T19:34:38.661Z,1.35
2022-09-07T19:37:06.836Z,1.52
2022-09-07T19:39:33.801Z,1.77
2022-09-07T19:42:02.255Z,1.20
2022-09-07T19:44:28.962Z,1.65
2022-09-07T19:46:56.800Z,1.67
2022-09-07T19:49:23.609Z,1.52
2022-09-07T19:51:51.896Z,2.13
2022-09-07T19:54:18.896Z,1.05
2022-09-07T19:56:45.656Z,1.50
2022-09-07T19:59:13.189Z,1.30
2022-09-07T20:01:40.684Z,1.40
2022-09-07T20:04:13.800Z,1.30
2022-09-07T20:06:42.964Z,1.52
2022-09-07T20:09:10.235Z,1.30
2022-09-07T20:11:37.096Z,1.83
2022-09-07T20:14:04.124Z,1.30
2022-09-07T20:16:31.359Z,1.33
2022-09-07T20:18:58.872Z,1.90
2022-09-07T20:21:26.366Z,1.42
2022-09-07T20:23:53.021Z,1.30
2022-09-07T20:26:21.081Z,1.60
2022-09-07T20:29:05.896Z,1.73
2022-09-07T20:31:40.884Z,1.40
2022-09-07T20:34:09.324Z,2.50
2022-09-07T20:36:36.288Z,1.25
2022-09-07T20:39:04.643Z,1.30
2022-09-07T20:41:33.875Z,1.40
2022-09-07T20:44:02.495Z,1.33
2022-09-07T20:46:30.314Z,1.45
2022-09-07T20:48:57.492Z,1.17
2022-09-07T20:51:24.299Z,1.30
2022-09-07T20:53:51.179Z,1.13
2022-09-07T20:56:23.171Z,1.33
2022-09-07T20:58:54.633Z,1.35
2022-09-07T21:01:21.642Z,1.65
2022-09-07T21:03:50.731Z,1.30
2022-09-07T21:06:18.405Z,1.58
2022-09-07T21:08:46.764Z,1.10
2022-09-07T21:11:18.207Z,1.67
2022-09-07T21:13:46.649Z,1.80
2022-09-07T21:16:15.846Z,1.50
2022-09-07T21:18:44.339Z,1.45
2022-09-07T21:21:20.460Z,1.40
2022-09-07T21:23:47.932Z,1.48
2022-09-07T21:26:15.057Z,1.08
2022-09-07T21:28:41.739Z,1.20
2022-09-07T21:31:09.132Z,1.60
2022-09-07T21:33:37.691Z,1.45
2022-09-07T21:36:09.057Z,1.35
2022-09-07T21:38:36.959Z,1.42
2022-09-07T21:41:11.900Z,1.42
2022-09-07T21:43:39.498Z,1.35
2022-09-07T21:46:08.119Z,1.60
2022-09-07T21:48:35.124Z,1.60
2022-09-07T21:51:02.292Z,1.45
2022-09-07T21:53:29.071Z,1.25
2022-09-07T21:56:00.407Z,1.35
2022-09-07T21:58:28.682Z,1.52
2022-09-07T22:03:25.286Z,1.65
2022-09-07T22:05:52.078Z,1.50
2022-09-07T22:08:19.252Z,1.40
2022-09-07T22:10:46.843Z,1.40
2022-09-07T22:13:13.527Z,1.70
2022-09-07T22:15:41.543Z,1.23
2022-09-07T22:18:11.813Z,1.58
2022-09-07T22:20:39.008Z,1.30
2022-09-07T22:23:05.854Z,1.55
2022-09-07T22:25:33.441Z,1.70
2022-09-07T22:28:00.276Z,1.35
2022-09-07T22:30:27.246Z,1.15
2022-09-07T22:32:54.208Z,1.33
2022-09-07T22:35:23.595Z,1.40
2022-09-07T22:37:50.239Z,1.45
2022-09-07T22:40:17.070Z,1.52
2022-09-07T22:42:43.789Z,1.38
2022-09-07T22:45:10.615Z,1.23
2022-09-07T22:47:37.315Z,1.15
2022-09-07T22:50:05.469Z,1.58
2022-09-07T22:52:32.201Z,1.33
2022-09-07T22:54:58.834Z,1.80
2022-09-07T22:57:25.523Z,1.40
2022-09-07T22:59:52.247Z,1.40
2022-09-07T23:02:18.929Z,1.60
2022-09-07T23:04:46.705Z,1.30
2022-09-07T23:07:13.430Z,1.58
2022-09-07T23:09:40.224Z,1.40
2022-09-07T23:12:07.339Z,1.52
2022-09-07T23:14:34.226Z,1.70
2022-09-07T23:17:00.886Z,1.95
2022-09-07T23:19:27.808Z,1.73
2022-09-07T23:21:55.151Z,1.90
2022-09-07T23:24:22.009Z,2.00
2022-09-07T23:26:49.261Z,1.95
2022-09-07T23:29:16.479Z,1.45
2022-09-07T23:31:45.457Z,1.70
2022-09-07T23:34:12.236Z,1.40
2022-09-07T23:36:39.118Z,2.22
2022-09-07T23:39:07.840Z,2.00
2022-09-07T23:41:34.516Z,2.22
2022-09-07T23:44:01.545Z,1.55
2022-09-07T23:46:28.316Z,2.10
2022-09-07T23:48:55.088Z,2.15
2022-09-07T23:51:24.462Z,1.88
2022-09-07T23:53:52.283Z,2.20
2022-09-07T23:56:19.283Z,2.33
2022-09-07T23:58:45.942Z,1.85
